createdAt,value
2023-05-16T00:00:01.724Z,70.47
2023-05-16T00:02:32.036Z,70.19
2023-05-16T00:04:58.888Z,70.50
2023-05-16T00:07:25.531Z,70.87
2023-05-16T00:09:52.270Z,72.23
2023-05-16T00:12:19.834Z,71.75
2023-05-16T00:14:47.966Z,71.34
2023-05-16T00:17:17.545Z,71.42
2023-05-16T00:19:44.785Z,71.70
2023-05-16T00:22:11.690Z,71.43
2023-05-16T00:24:38.818Z,71.07
2023-05-16T00:27:05.721Z,71.43
2023-05-16T00:29:32.530Z,72.24
2023-05-16T00:31:59.426Z,72.65
2023-05-16T00:34:26.468Z,73.20
2023-05-16T00:36:53.692Z,73.94
2023-05-16T00:39:20.887Z,73.63
2023-05-16T00:41:47.685Z,73.80
2023-05-16T00:44:14.853Z,72.64
2023-05-16T00:46:43.055Z,73.51
2023-05-16T00:49:10.461Z,73.58
2023-05-16T00:51:39.254Z,74.06
2023-05-16T00:54:06.708Z,73.59
2023-05-16T00:56:33.948Z,73.57
2023-05-16T00:59:01.461Z,73.02
2023-05-16T01:01:28.589Z,74.18
2023-05-16T01:03:56.107Z,74.20
2023-05-16T01:06:23.012Z,74.75
2023-05-16T01:08:49.771Z,75.03
2023-05-16T01:11:19.891Z,75.45
2023-05-16T01:14:12.168Z,75.31
2023-05-16T01:17:17.705Z,75.31
2023-05-16T01:20:00.451Z,74.50
2023-05-16T01:22:44.661Z,75.28
2023-05-16T01:25:45.706Z,75.28
2023-05-16T01:28:17.498Z,75.85
2023-05-16T01:30:44.862Z,75.12
2023-05-16T01:33:12.376Z,74.66
2023-05-16T01:35:47.452Z,74.40
2023-05-16T01:38:25.916Z,74.71
2023-05-16T01:40:59.620Z,75.13
2023-05-16T01:43:59.105Z,75.48
2023-05-16T01:46:30.988Z,74.97
2023-05-16T01:49:08.770Z,76.38
2023-05-16T01:51:38.753Z,75.93
2023-05-16T01:54:11.038Z,76.06
2023-05-16T01:56:38.825Z,76.11
2023-05-16T01:59:08.176Z,76.42
2023-05-16T02:01:34.972Z,76.14
2023-05-16T02:04:01.803Z,77.08
2023-05-16T02:06:28.601Z,76.60
2023-05-16T02:08:57.071Z,77.49
2023-05-16T02:11:23.777Z,77.74
2023-05-16T02:13:51.776Z,77.84
2023-05-16T02:16:18.760Z,76.74
2023-05-16T02:18:45.884Z,76.77
2023-05-16T02:21:32.446Z,76.49
2023-05-16T02:23:59.053Z,77.32
2023-05-16T02:26:27.413Z,77.33
2023-05-16T02:28:54.477Z,77.85
2023-05-16T02:31:27.909Z,77.76
2023-05-16T02:33:54.731Z,78.62
2023-05-16T02:36:21.613Z,77.70
2023-05-16T02:38:48.453Z,77.81
2023-05-16T02:41:15.225Z,78.51
2023-05-16T02:43:46.775Z,77.75
2023-05-16T02:46:21.740Z,77.41
2023-05-16T02:48:49.231Z,76.92
2023-05-16T02:51:16.059Z,77.08
2023-05-16T02:53:42.752Z,78.02
2023-05-16T02:56:10.278Z,77.50
2023-05-16T02:58:37.014Z,78.70
2023-05-16T03:01:03.690Z,79.55
2023-05-16T03:03:33.356Z,78.51
2023-05-16T03:06:00.574Z,78.18
2023-05-16T03:08:27.302Z,78.37
2023-05-16T03:10:57.104Z,79.03
2023-05-16T03:13:23.897Z,78.58
2023-05-16T03:15:50.767Z,77.88
2023-05-16T03:18:18.020Z,77.35
2023-05-16T03:20:44.799Z,77.23
2023-05-16T03:23:11.527Z,77.21
2023-05-16T03:25:38.683Z,78.38
2023-05-16T03:28:08.017Z,78.66
2023-05-16T03:30:35.440Z,80.28
2023-05-16T03:33:03.798Z,80.12
2023-05-16T03:35:35.083Z,79.92
2023-05-16T03:38:02.601Z,79.27
2023-05-16T03:40:29.563Z,79.76
2023-05-16T03:42:56.306Z,79.50
2023-05-16T03:45:23.267Z,79.13
2023-05-16T03:47:50.386Z,79.54
2023-05-16T03:50:17.426Z,79.30
2023-05-16T03:52:44.090Z,79.75
2023-05-16T03:55:14.141Z,79.00
2023-05-16T03:57:42.216Z,78.59
2023-05-16T04:00:12.601Z,78.58
2023-05-16T04:02:43.919Z,77.88
2023-05-16T04:05:11.787Z,79.27
2023-05-16T04:07:38.462Z,78.70
2023-05-16T04:10:05.534Z,78.62
2023-05-16T04:12:33.403Z,78.19
2023-05-16T04:15:00.083Z,79.07
2023-05-16T04:17:26.855Z,78.66
2023-05-16T04:19:53.530Z,78.30
2023-05-16T04:22:23.275Z,78.30
2023-05-16T04:24:50.210Z,78.80
2023-05-16T04:27:17.526Z,78.40
2023-05-16T04:29:45.461Z,78.46
2023-05-16T04:32:12.462Z,79.17
2023-05-16T04:34:44.323Z,78.81
2023-05-16T04:37:11.616Z,78.82
2023-05-16T04:39:38.360Z,78.80
2023-05-16T04:42:06.360Z,78.48
2023-05-16T04:44:32.958Z,78.64
2023-05-16T04:46:59.676Z,78.39
2023-05-16T04:49:26.554Z,78.11
2023-05-16T04:51:53.253Z,78.05
2023-05-16T04:54:20.058Z,78.73
2023-05-16T04:56:46.781Z,78.83
2023-05-16T04:59:14.190Z,78.89
2023-05-16T05:01:41.184Z,78.54
2023-05-16T05:04:08.082Z,78.95
2023-05-16T05:06:34.845Z,79.02
2023-05-16T05:09:01.487Z,78.67
2023-05-16T05:11:28.520Z,77.62
2023-05-16T05:13:55.191Z,77.80
2023-05-16T05:16:22.085Z,77.95
2023-05-16T05:18:48.964Z,77.71
2023-05-16T05:21:15.827Z,78.26
2023-05-16T05:23:42.517Z,78.42
2023-05-16T05:26:09.502Z,77.10
2023-05-16T05:28:37.735Z,77.21
2023-05-16T05:31:08.195Z,77.29
2023-05-16T05:33:34.984Z,77.17
2023-05-16T05:36:03.884Z,76.75
2023-05-16T05:38:30.876Z,75.75
2023-05-16T05:40:57.652Z,75.17
2023-05-16T05:43:24.376Z,75.04
2023-05-16T05:45:51.228Z,74.55
2023-05-16T05:48:18.233Z,74.22
2023-05-16T05:50:44.955Z,74.32
2023-05-16T05:53:11.801Z,74.40
2023-05-16T05:55:38.516Z,73.72
2023-05-16T05:58:07.038Z,74.22
2023-05-16T06:00:34.077Z,74.24
2023-05-16T06:03:01.357Z,74.25
2023-05-16T06:05:28.387Z,74.38
2023-05-16T06:07:55.452Z,73.75
2023-05-16T06:10:23.236Z,73.14
2023-05-16T06:12:50.084Z,74.32
2023-05-16T06:15:16.991Z,74.78
2023-05-16T06:17:43.739Z,74.66
2023-05-16T06:20:11.234Z,74.31
2023-05-16T06:22:37.952Z,73.43
2023-05-16T06:25:04.824Z,73.43
2023-05-16T06:27:33.625Z,73.34
2023-05-16T06:30:00.523Z,72.59
2023-05-16T06:32:27.229Z,72.30
2023-05-16T06:34:54.012Z,72.30
2023-05-16T06:37:20.761Z,71.52
2023-05-16T06:39:47.432Z,70.66
2023-05-16T06:42:14.226Z,70.26
2023-05-16T06:44:41.181Z,70.18
2023-05-16T06:47:07.921Z,69.41
2023-05-16T06:49:34.910Z,69.62
2023-05-16T06:52:02.638Z,69.46
2023-05-16T06:54:29.568Z,69.81
2023-05-16T06:56:56.327Z,69.41
2023-05-16T06:59:23.492Z,68.35
2023-05-16T07:01:50.252Z,68.25
2023-05-16T07:04:17.064Z,68.13
2023-05-16T07:06:43.855Z,67.96
2023-05-16T07:09:10.675Z,68.09
2023-05-16T07:11:37.377Z,67.64
2023-05-16T07:14:04.136Z,65.86
2023-05-16T07:16:31.039Z,65.95
2023-05-16T07:18:57.774Z,66.27
2023-05-16T07:21:24.575Z,65.18
2023-05-16T07:23:51.354Z,65.18
2023-05-16T07:26:18.567Z,65.01
2023-05-16T07:28:45.394Z,65.65
2023-05-16T07:31:12.201Z,65.24
2023-05-16T07:33:38.937Z,65.37
2023-05-16T07:36:16.006Z,65.49
2023-05-16T07:38:44.732Z,65.87
2023-05-16T07:41:11.624Z,66.26
2023-05-16T07:43:38.511Z,66.14
2023-05-16T07:46:05.885Z,66.58
2023-05-16T07:48:32.907Z,67.03
2023-05-16T07:50:59.788Z,66.72
2023-05-16T07:53:26.675Z,66.44
2023-05-16T07:55:53.463Z,67.28
2023-05-16T07:58:20.419Z,67.16
2023-05-16T08:00:47.393Z,67.23
2023-05-16T08:03:14.186Z,66.99
2023-05-16T08:05:41.007Z,67.63
2023-05-16T08:08:07.784Z,67.55
2023-05-16T08:10:34.441Z,68.42
2023-05-16T08:13:01.293Z,67.27
2023-05-16T08:15:28.777Z,66.93
2023-05-16T08:17:59.008Z,67.48
2023-05-16T08:20:26.371Z,67.66
2023-05-16T08:22:53.710Z,68.35
2023-05-16T08:25:21.280Z,68.18
2023-05-16T08:27:50.816Z,68.52
2023-05-16T08:30:17.642Z,68.74
2023-05-16T08:32:44.516Z,69.12
2023-05-16T08:35:11.449Z,70.07
2023-05-16T08:37:38.826Z,69.27
2023-05-16T08:40:09.511Z,69.95
2023-05-16T08:42:37.505Z,69.21
2023-05-16T08:45:05.786Z,69.64
2023-05-16T08:47:34.104Z,68.58
2023-05-16T08:50:07.013Z,68.19
2023-05-16T08:52:36.712Z,68.43
2023-05-16T08:55:11.974Z,67.71
2023-05-16T08:57:40.670Z,66.81
2023-05-16T09:00:12.217Z,67.21
2023-05-16T09:02:44.296Z,66.26
2023-05-16T09:05:13.895Z,65.35
2023-05-16T09:07:42.069Z,65.16
2023-05-16T09:10:09.860Z,65.29
2023-05-16T09:12:36.833Z,65.49
2023-05-16T09:15:05.197Z,65.49
2023-05-16T09:17:41.339Z,65.25
2023-05-16T09:20:12.924Z,64.34
2023-05-16T09:22:40.917Z,64.25
2023-05-16T09:25:12.716Z,64.18
2023-05-16T09:27:51.005Z,64.44
2023-05-16T09:30:21.930Z,64.61
2023-05-16T09:32:51.604Z,64.10
2023-05-16T09:35:35.185Z,63.24
2023-05-16T09:38:14.544Z,63.81
2023-05-16T09:40:44.307Z,64.09
2023-05-16T09:43:16.225Z,64.41
2023-05-16T09:45:47.733Z,64.91
2023-05-16T09:48:15.936Z,64.94
2023-05-16T09:50:54.277Z,65.22
2023-05-16T09:53:27.544Z,64.29
2023-05-16T09:56:07.726Z,63.12
2023-05-16T09:58:36.116Z,62.62
2023-05-16T10:01:03.653Z,61.54
2023-05-16T10:03:30.723Z,61.14
2023-05-16T10:05:57.596Z,60.52
2023-05-16T10:08:26.422Z,60.53
2023-05-16T10:10:55.147Z,62.11
2023-05-16T10:13:23.772Z,61.32
2023-05-16T10:15:52.750Z,60.53
2023-05-16T10:18:22.098Z,60.82
2023-05-16T10:20:52.312Z,61.01
2023-05-16T10:23:21.147Z,61.18
2023-05-16T10:25:49.334Z,60.24
2023-05-16T10:28:16.752Z,59.79
2023-05-16T10:30:46.107Z,58.66
2023-05-16T10:33:15.110Z,59.02
2023-05-16T10:35:43.731Z,58.80
2023-05-16T10:38:12.638Z,59.25
2023-05-16T10:40:40.818Z,58.25
2023-05-16T10:43:08.822Z,59.02
2023-05-16T10:45:41.888Z,58.61
2023-05-16T10:48:12.357Z,58.21
2023-05-16T10:50:41.350Z,59.41
2023-05-16T10:53:37.369Z,58.32
2023-05-16T10:56:04.082Z,58.13
2023-05-16T10:58:38.454Z,57.96
2023-05-16T11:01:24.759Z,57.43
2023-05-16T11:03:57.888Z,57.89
2023-05-16T11:06:29.323Z,58.62
2023-05-16T11:09:11.155Z,58.57
2023-05-16T11:11:46.337Z,61.32
2023-05-16T11:14:34.915Z,61.47
2023-05-16T11:17:15.115Z,62.05
2023-05-16T11:19:45.466Z,62.49
2023-05-16T11:22:22.325Z,61.91
2023-05-16T11:25:16.035Z,61.43
2023-05-16T11:27:49.031Z,61.93
2023-05-16T11:30:18.060Z,62.04
2023-05-16T11:32:46.712Z,61.57
2023-05-16T11:35:18.167Z,62.02
2023-05-16T11:37:46.955Z,61.51
2023-05-16T11:40:14.842Z,61.62
2023-05-16T11:42:46.489Z,61.56
2023-05-16T11:45:18.630Z,60.91
2023-05-16T11:47:47.989Z,61.46
2023-05-16T11:50:25.189Z,61.74
2023-05-16T11:52:56.961Z,61.17
2023-05-16T11:55:41.294Z,60.92
2023-05-16T11:58:10.246Z,59.59
2023-05-16T12:00:37.104Z,59.32
2023-05-16T12:03:05.483Z,58.46
2023-05-16T12:05:34.295Z,57.19
2023-05-16T12:08:02.757Z,57.12
2023-05-16T12:10:31.866Z,57.00
2023-05-16T12:12:59.072Z,56.67
2023-05-16T12:15:26.308Z,57.19
2023-05-16T12:17:53.427Z,57.19
2023-05-16T12:20:20.306Z,56.39
2023-05-16T12:22:47.075Z,56.57
2023-05-16T12:25:27.091Z,56.29
2023-05-16T12:27:55.589Z,55.28
2023-05-16T12:30:24.828Z,54.31
2023-05-16T12:33:05.786Z,52.88
2023-05-16T12:35:35.149Z,53.86
2023-05-16T12:38:10.258Z,51.59
2023-05-16T12:40:39.393Z,50.85
2023-05-16T12:43:23.331Z,49.88
2023-05-16T12:45:52.893Z,49.61
2023-05-16T12:48:20.022Z,48.95
2023-05-16T12:50:47.022Z,48.70
2023-05-16T12:53:15.003Z,47.80
2023-05-16T12:55:42.572Z,47.94
2023-05-16T12:58:11.132Z,48.35
2023-05-16T13:00:38.943Z,47.77
2023-05-16T13:03:08.808Z,49.10
2023-05-16T13:05:36.226Z,48.07
2023-05-16T13:08:03.827Z,47.10
2023-05-16T13:10:30.956Z,48.37
2023-05-16T13:12:59.886Z,47.95
2023-05-16T13:15:27.731Z,46.95
2023-05-16T13:17:55.025Z,46.44
2023-05-16T13:20:21.799Z,45.89
2023-05-16T13:22:48.825Z,46.20
2023-05-16T13:25:16.071Z,45.97
2023-05-16T13:27:42.861Z,46.21
2023-05-16T13:30:10.066Z,44.21
2023-05-16T13:32:38.244Z,43.26
2023-05-16T13:35:06.181Z,42.54
2023-05-16T13:37:33.002Z,41.84
2023-05-16T13:40:00.204Z,42.45
2023-05-16T13:42:27.384Z,41.95
2023-05-16T13:44:54.117Z,42.15
2023-05-16T13:47:20.873Z,41.32
2023-05-16T13:49:48.778Z,41.45
2023-05-16T13:52:15.541Z,41.55
2023-05-16T13:54:42.392Z,40.29
2023-05-16T13:57:09.141Z,40.18
2023-05-16T14:02:05.803Z,39.47
2023-05-16T14:04:32.697Z,39.29
2023-05-16T14:06:59.493Z,39.53
2023-05-16T14:09:26.198Z,39.43
2023-05-16T14:11:53.964Z,39.96
2023-05-16T14:14:21.223Z,40.09
2023-05-16T14:16:47.956Z,39.56
2023-05-16T14:19:17.268Z,40.43
2023-05-16T14:21:45.789Z,40.16
2023-05-16T14:24:12.628Z,40.68
2023-05-16T14:26:39.490Z,38.70
2023-05-16T14:29:06.268Z,39.37
2023-05-16T14:31:33.405Z,38.35
2023-05-16T14:34:00.237Z,37.90
2023-05-16T14:36:26.941Z,38.20
2023-05-16T14:38:53.689Z,36.57
2023-05-16T14:41:21.241Z,36.41
2023-05-16T14:43:47.978Z,37.55
2023-05-16T14:46:14.870Z,38.63
2023-05-16T14:48:41.584Z,37.06
2023-05-16T14:51:08.442Z,34.80
2023-05-16T14:53:35.412Z,33.00
2023-05-16T14:56:03.728Z,30.78
2023-05-16T14:58:30.869Z,28.20
2023-05-16T15:00:57.944Z,25.61
2023-05-16T15:03:24.958Z,25.87
2023-05-16T15:05:52.702Z,26.85
2023-05-16T15:08:19.407Z,25.98
2023-05-16T15:10:46.599Z,25.52
2023-05-16T15:13:13.350Z,26.84
2023-05-16T15:15:40.096Z,27.17
2023-05-16T15:18:06.864Z,25.18
2023-05-16T15:20:33.576Z,23.59
2023-05-16T15:23:00.579Z,21.53
2023-05-16T15:25:28.071Z,21.47
2023-05-16T15:27:55.232Z,21.83
2023-05-16T15:30:22.392Z,19.82
2023-05-16T15:32:49.371Z,19.72
2023-05-16T15:35:16.282Z,19.15
2023-05-16T15:37:43.852Z,20.46
2023-05-16T15:40:11.532Z,21.80
2023-05-16T15:42:38.373Z,23.78
2023-05-16T15:45:05.963Z,24.89
2023-05-16T15:47:32.980Z,26.78
2023-05-16T15:49:59.758Z,27.44
2023-05-16T15:52:26.600Z,27.69
2023-05-16T15:54:53.387Z,27.77
2023-05-16T15:57:20.056Z,28.22
2023-05-16T15:59:46.950Z,28.34
2023-05-16T16:02:13.787Z,28.73
2023-05-16T16:04:40.684Z,29.17
2023-05-16T16:07:07.390Z,29.83
2023-05-16T16:09:34.129Z,30.27
2023-05-16T16:12:01.054Z,29.48
2023-05-16T16:14:27.877Z,29.23
2023-05-16T16:16:54.701Z,28.45
2023-05-16T16:19:21.689Z,29.13
2023-05-16T16:21:48.451Z,29.79
2023-05-16T16:24:15.260Z,30.11
2023-05-16T16:26:42.437Z,29.04
2023-05-16T16:29:09.386Z,29.22
2023-05-16T16:31:36.268Z,29.92
2023-05-16T16:34:03.245Z,29.46
2023-05-16T16:36:31.276Z,29.89
2023-05-16T16:38:59.868Z,30.12
2023-05-16T16:41:26.595Z,30.01
2023-05-16T16:43:53.278Z,30.50
2023-05-16T16:46:20.232Z,30.76
2023-05-16T16:48:47.810Z,30.89
2023-05-16T16:51:14.555Z,31.56
2023-05-16T16:53:41.730Z,30.70
2023-05-16T16:56:08.464Z,30.58
2023-05-16T16:58:35.296Z,31.17
2023-05-16T17:01:02.280Z,30.84
2023-05-16T17:03:29.159Z,30.82
2023-05-16T17:05:56.063Z,31.29
2023-05-16T17:08:22.877Z,31.51
2023-05-16T17:10:49.582Z,32.24
2023-05-16T17:13:17.567Z,31.85
2023-05-16T17:15:44.474Z,31.48
2023-05-16T17:18:11.279Z,31.02
2023-05-16T17:20:37.991Z,31.21
2023-05-16T17:23:05.159Z,30.94
2023-05-16T17:25:32.392Z,30.58
2023-05-16T17:27:59.303Z,30.01
2023-05-16T17:30:26.233Z,30.06
2023-05-16T17:32:53.882Z,29.59
2023-05-16T17:35:21.061Z,30.33
2023-05-16T17:37:47.907Z,29.27
2023-05-16T17:40:17.110Z,29.08
2023-05-16T17:42:45.349Z,29.08
2023-05-16T17:45:14.846Z,29.39
2023-05-16T17:47:42.162Z,30.41
2023-05-16T17:50:10.410Z,30.41
2023-05-16T17:52:40.526Z,30.41
2023-05-16T17:55:09.079Z,31.09
2023-05-16T17:57:35.999Z,31.26
2023-05-16T18:00:05.408Z,30.75
2023-05-16T18:02:36.029Z,31.38
2023-05-16T18:05:04.845Z,31.52
2023-05-16T18:07:32.270Z,31.66
2023-05-16T18:09:59.037Z,30.97
2023-05-16T18:12:25.728Z,31.20
2023-05-16T18:14:53.198Z,31.84
2023-05-16T18:17:20.166Z,32.59
2023-05-16T18:19:47.040Z,32.05
2023-05-16T18:22:13.914Z,32.26
2023-05-16T18:24:40.878Z,32.51
2023-05-16T18:27:07.656Z,32.41
2023-05-16T18:29:34.449Z,32.37
2023-05-16T18:32:01.487Z,32.53
2023-05-16T18:34:28.422Z,32.52
2023-05-16T18:36:55.082Z,32.87
2023-05-16T18:39:21.985Z,33.00
2023-05-16T18:41:48.898Z,32.93
2023-05-16T18:44:18.480Z,33.06
2023-05-16T18:46:46.250Z,33.21
2023-05-16T18:49:14.160Z,33.00
2023-05-16T18:51:41.248Z,33.21
2023-05-16T18:54:08.119Z,33.62
2023-05-16T18:56:35.350Z,34.00
2023-05-16T18:59:02.254Z,34.05
2023-05-16T19:01:29.080Z,34.29
2023-05-16T19:03:56.103Z,34.11
2023-05-16T19:06:23.199Z,34.63
2023-05-16T19:08:50.084Z,35.10
2023-05-16T19:11:17.853Z,35.15
2023-05-16T19:13:45.646Z,35.26
2023-05-16T19:16:12.551Z,35.87
2023-05-16T19:18:39.545Z,35.58
2023-05-16T19:21:13.203Z,35.82
2023-05-16T19:23:40.671Z,36.36
2023-05-16T19:26:07.528Z,36.66
2023-05-16T19:28:34.727Z,36.36
2023-05-16T19:31:01.624Z,36.26
2023-05-16T19:33:28.484Z,36.48
2023-05-16T19:35:57.665Z,36.52
2023-05-16T19:38:25.665Z,37.18
2023-05-16T19:40:53.225Z,37.14
2023-05-16T19:43:20.141Z,37.55
2023-05-16T19:45:46.937Z,38.08
2023-05-16T19:48:13.908Z,38.19
2023-05-16T19:50:40.700Z,38.69
2023-05-16T19:53:07.387Z,39.30
2023-05-16T19:55:37.722Z,39.06
2023-05-16T19:58:05.116Z,39.33
2023-05-16T20:00:32.268Z,39.69
2023-05-16T20:02:59.771Z,39.41
2023-05-16T20:05:27.028Z,39.41
2023-05-16T20:07:55.214Z,39.43
2023-05-16T20:10:22.249Z,39.60
2023-05-16T20:12:49.313Z,39.54
2023-05-16T20:15:16.163Z,40.07
2023-05-16T20:17:42.996Z,40.72
2023-05-16T20:20:10.291Z,40.80
2023-05-16T20:22:41.301Z,41.29
2023-05-16T20:25:10.259Z,41.50
2023-05-16T20:27:37.794Z,41.24
2023-05-16T20:30:06.446Z,41.53
2023-05-16T20:32:33.772Z,41.92
2023-05-16T20:35:04.030Z,42.26
2023-05-16T20:37:33.452Z,42.52
2023-05-16T20:40:00.322Z,42.62
2023-05-16T20:42:27.079Z,42.79
2023-05-16T20:44:53.990Z,43.03
2023-05-16T20:47:20.825Z,43.25
2023-05-16T20:49:47.614Z,43.51
2023-05-16T20:52:14.360Z,43.64
2023-05-16T20:54:41.816Z,43.70
2023-05-16T20:57:08.804Z,43.71
2023-05-16T20:59:37.332Z,44.05
2023-05-16T21:02:05.760Z,44.05
2023-05-16T21:04:32.582Z,44.18
2023-05-16T21:06:59.315Z,43.90
2023-05-16T21:09:26.120Z,43.71
2023-05-16T21:11:53.458Z,44.14
2023-05-16T21:14:20.215Z,44.38
2023-05-16T21:16:47.012Z,44.61
2023-05-16T21:19:13.878Z,44.37
2023-05-16T21:21:40.816Z,44.92
2023-05-16T21:24:07.570Z,45.00
2023-05-16T21:26:34.352Z,45.27
2023-05-16T21:29:01.302Z,45.90
2023-05-16T21:31:28.140Z,45.70
2023-05-16T21:33:55.117Z,45.74
2023-05-16T21:36:22.193Z,45.77
2023-05-16T21:38:49.133Z,45.75
2023-05-16T21:41:17.980Z,46.24
2023-05-16T21:43:44.850Z,46.34
2023-05-16T21:46:11.720Z,46.16
2023-05-16T21:48:38.577Z,47.01
2023-05-16T21:51:05.579Z,46.89
2023-05-16T21:53:34.024Z,46.74
2023-05-16T21:56:00.988Z,46.67
2023-05-16T21:58:27.832Z,48.02
2023-05-16T22:00:54.608Z,47.87
2023-05-16T22:03:21.727Z,47.70
2023-05-16T22:05:48.705Z,47.92
2023-05-16T22:08:15.735Z,48.69
2023-05-16T22:10:42.816Z,48.03
2023-05-16T22:13:09.635Z,48.68
2023-05-16T22:15:36.359Z,49.05
2023-05-16T22:18:03.172Z,49.48
2023-05-16T22:20:30.038Z,49.55
2023-05-16T22:22:56.811Z,50.23
2023-05-16T22:25:23.618Z,50.62
2023-05-16T22:27:50.499Z,50.11
2023-05-16T22:30:17.223Z,50.19
2023-05-16T22:32:45.692Z,50.69
2023-05-16T22:35:13.734Z,51.12
2023-05-16T22:37:40.465Z,51.05
2023-05-16T22:40:08.199Z,51.81
2023-05-16T22:42:35.073Z,52.16
2023-05-16T22:45:01.846Z,52.33
2023-05-16T22:47:31.849Z,52.87
2023-05-16T22:49:58.608Z,53.29
2023-05-16T22:52:25.443Z,53.18
2023-05-16T22:54:52.153Z,53.40
2023-05-16T22:57:18.902Z,53.87
2023-05-16T22:59:45.650Z,54.27
2023-05-16T23:02:12.643Z,53.91
2023-05-16T23:04:39.467Z,54.10
2023-05-16T23:07:06.224Z,54.79
2023-05-16T23:09:33.007Z,54.70
2023-05-16T23:12:00.241Z,54.80
2023-05-16T23:14:27.307Z,55.35
2023-05-16T23:16:54.118Z,54.99
2023-05-16T23:19:21.107Z,54.81
2023-05-16T23:21:47.975Z,55.60
2023-05-16T23:24:14.680Z,55.19
2023-05-16T23:26:41.388Z,55.39
2023-05-16T23:29:08.123Z,55.94
2023-05-16T23:31:34.951Z,55.87
2023-05-16T23:34:01.848Z,55.58
2023-05-16T23:36:28.832Z,56.10
2023-05-16T23:38:55.735Z,56.17
2023-05-16T23:41:22.590Z,55.70
2023-05-16T23:43:49.350Z,56.52
2023-05-16T23:46:16.199Z,55.60
2023-05-16T23:48:43.114Z,56.07
2023-05-16T23:51:09.889Z,56.50
2023-05-16T23:53:36.710Z,56.39
2023-05-16T23:56:03.578Z,56.92
2023-05-16T23:58:30.537Z,56.47
